createdAt,value
2016-07-29T00:00:39.471Z,18.05
2016-07-29T00:02:39.476Z,18.01
2016-07-29T00:03:39.502Z,18.05
2016-07-29T00:04:39.448Z,18.01
2016-07-29T00:05:39.446Z,18.06
2016-07-29T00:06:39.447Z,18.1
2016-07-29T00:07:39.450Z,18.02
2016-07-29T00:08:39.450Z,18.06
2016-07-29T00:09:39.447Z,18.03
2016-07-29T00:10:39.430Z,18.06
2016-07-29T00:11:39.447Z,18.05
2016-07-29T00:12:39.427Z,18.14
2016-07-29T00:13:39.432Z,18.02
2016-07-29T00:14:39.429Z,18.06
2016-07-29T00:15:39.422Z,18.14
2016-07-29T00:16:39.513Z,18.23
2016-07-29T00:17:39.479Z,18.17
2016-07-29T00:18:39.429Z,18.06
2016-07-29T00:19:40.381Z,18.21
2016-07-29T00:20:39.449Z,18.13
2016-07-29T00:21:39.433Z,18.17
2016-07-29T00:22:39.417Z,18.14
2016-07-29T00:23:39.424Z,18.14
2016-07-29T00:24:39.411Z,18.23
2016-07-29T00:25:39.411Z,18.17
2016-07-29T00:26:39.413Z,18.19
2016-07-29T00:27:39.406Z,18.16
2016-07-29T00:28:40.371Z,18.19
2016-07-29T00:29:40.169Z,18.03
2016-07-29T00:30:39.418Z,18.06
2016-07-29T00:31:39.666Z,18.01
2016-07-29T00:32:39.415Z,17.99
2016-07-29T00:33:39.404Z,17.9
2016-07-29T00:34:39.387Z,17.87
2016-07-29T00:35:39.397Z,17.8
2016-07-29T00:36:39.404Z,17.8
2016-07-29T00:37:39.400Z,17.76
2016-07-29T00:38:39.413Z,17.69
2016-07-29T00:39:39.382Z,17.73
2016-07-29T00:40:39.496Z,17.71
2016-07-29T00:41:39.400Z,17.77
2016-07-29T00:42:39.418Z,17.63
2016-07-29T00:43:40.340Z,17.65
2016-07-29T00:44:39.421Z,17.74
2016-07-29T00:45:39.386Z,17.73
2016-07-29T00:46:39.366Z,17.66
2016-07-29T00:47:39.409Z,17.66
2016-07-29T00:48:39.389Z,17.69
2016-07-29T00:49:39.382Z,17.66
2016-07-29T00:50:39.379Z,17.62
2016-07-29T00:51:39.399Z,17.57
2016-07-29T00:52:39.372Z,17.55
2016-07-29T00:53:39.376Z,17.47
2016-07-29T00:54:39.382Z,17.58
2016-07-29T00:55:39.673Z,17.6
2016-07-29T00:56:39.358Z,17.45
2016-07-29T00:57:39.355Z,17.55
2016-07-29T00:58:39.354Z,17.43
2016-07-29T00:59:39.382Z,17.54
2016-07-29T01:00:39.385Z,17.43
2016-07-29T01:01:39.362Z,17.46
2016-07-29T01:02:39.359Z,17.32
2016-07-29T01:03:39.394Z,17.31
2016-07-29T01:04:39.371Z,17.22
2016-07-29T01:05:39.366Z,17.17
2016-07-29T01:06:39.288Z,17.18
2016-07-29T01:07:39.330Z,17.12
2016-07-29T01:08:39.347Z,17.05
2016-07-29T01:09:39.536Z,16.99
2016-07-29T01:10:39.335Z,16.92
2016-07-29T01:11:39.335Z,16.91
2016-07-29T01:12:39.341Z,16.94
2016-07-29T01:13:39.347Z,16.97
2016-07-29T01:14:39.344Z,16.95
2016-07-29T01:15:39.392Z,16.92
2016-07-29T01:16:39.326Z,16.97
2016-07-29T01:17:39.325Z,16.88
2016-07-29T01:18:39.333Z,16.84
2016-07-29T01:19:39.341Z,16.9
2016-07-29T01:20:39.428Z,16.94
2016-07-29T01:21:39.319Z,16.91
2016-07-29T01:22:39.320Z,16.97
2016-07-29T01:23:39.309Z,17.02
2016-07-29T01:24:39.314Z,16.97
2016-07-29T01:25:39.330Z,16.91
2016-07-29T01:26:39.301Z,16.99
2016-07-29T01:27:39.319Z,17.03
2016-07-29T01:28:39.308Z,17
2016-07-29T01:29:39.322Z,17.05
2016-07-29T01:30:39.307Z,16.97
2016-07-29T01:31:39.296Z,16.87
2016-07-29T01:32:39.299Z,16.95
2016-07-29T01:33:39.319Z,16.95
2016-07-29T01:34:39.303Z,16.95
2016-07-29T01:35:39.305Z,16.84
2016-07-29T01:36:39.292Z,16.82
2016-07-29T01:37:39.290Z,16.92
2016-07-29T01:38:39.537Z,16.74
2016-07-29T01:39:39.290Z,16.77
2016-07-29T01:40:39.295Z,16.77
2016-07-29T01:41:39.290Z,16.77
2016-07-29T01:42:39.288Z,16.76
2016-07-29T01:43:39.254Z,16.8
2016-07-29T01:44:39.275Z,16.69
2016-07-29T01:45:39.268Z,16.7
2016-07-29T01:46:39.282Z,16.7
2016-07-29T01:47:39.271Z,16.65
2016-07-29T01:48:39.264Z,16.66
2016-07-29T01:49:39.259Z,16.51
2016-07-29T01:50:39.260Z,16.62
2016-07-29T01:51:39.271Z,16.57
2016-07-29T01:52:39.260Z,16.59
2016-07-29T01:53:39.224Z,16.51
2016-07-29T01:54:39.258Z,16.48
2016-07-29T01:55:39.251Z,16.47
2016-07-29T01:56:39.261Z,16.48
2016-07-29T01:57:39.237Z,16.49
2016-07-29T01:58:39.242Z,16.4
2016-07-29T01:59:39.485Z,16.32
2016-07-29T02:00:39.231Z,16.39
2016-07-29T02:01:39.246Z,16.27
2016-07-29T02:02:39.233Z,16.29
2016-07-29T02:03:39.243Z,16.36
2016-07-29T02:04:39.227Z,16.27
2016-07-29T02:05:39.220Z,16.27
2016-07-29T02:06:39.216Z,16.29
2016-07-29T02:07:39.220Z,16.22
2016-07-29T02:08:39.219Z,16.25
2016-07-29T02:09:39.235Z,16.25
2016-07-29T02:10:39.334Z,16.13
2016-07-29T02:11:39.231Z,16.21
2016-07-29T02:12:39.218Z,16.13
2016-07-29T02:13:39.204Z,16.08
2016-07-29T02:14:39.252Z,16.08
2016-07-29T02:15:39.193Z,16.08
2016-07-29T02:16:39.182Z,16
2016-07-29T02:17:39.216Z,15.91
2016-07-29T02:18:39.937Z,15.98
2016-07-29T02:19:39.178Z,15.96
2016-07-29T02:20:39.193Z,15.93
2016-07-29T02:21:39.194Z,15.96
2016-07-29T02:22:39.174Z,15.96
2016-07-29T02:23:39.163Z,15.96
2016-07-29T02:24:39.162Z,15.89
2016-07-29T02:25:39.909Z,15.89
2016-07-29T02:26:39.165Z,15.88
2016-07-29T02:27:39.924Z,15.89
2016-07-29T02:28:39.175Z,15.92
2016-07-29T02:29:39.174Z,15.99
2016-07-29T02:30:39.161Z,15.92
2016-07-29T02:31:39.920Z,15.91
2016-07-29T02:32:39.139Z,15.92
2016-07-29T02:33:39.155Z,15.96
2016-07-29T02:34:39.164Z,15.95
2016-07-29T02:35:39.142Z,15.99
2016-07-29T02:36:39.128Z,15.93
2016-07-29T02:37:39.123Z,16.08
2016-07-29T02:38:39.142Z,15.93
2016-07-29T02:39:39.126Z,16.08
2016-07-29T02:40:39.122Z,16.06
2016-07-29T02:41:39.145Z,16.21
2016-07-29T02:42:39.139Z,16.07
2016-07-29T02:43:39.124Z,16.07
2016-07-29T02:44:39.099Z,16.13
2016-07-29T02:45:39.111Z,16.11
2016-07-29T02:46:39.112Z,16.16
2016-07-29T02:47:39.093Z,16.14
2016-07-29T02:48:39.129Z,16.07
2016-07-29T02:49:40.055Z,16.14
2016-07-29T02:50:39.123Z,16.13
2016-07-29T02:51:39.084Z,16.07
2016-07-29T02:52:39.077Z,16.13
2016-07-29T02:53:39.081Z,16.13
2016-07-29T02:54:39.084Z,16.07
2016-07-29T02:55:39.074Z,16.07
2016-07-29T02:56:39.077Z,16.06
2016-07-29T02:57:39.062Z,16.08
2016-07-29T02:58:39.080Z,16.1
2016-07-29T02:59:39.064Z,16.08
2016-07-29T03:00:39.061Z,16.1
2016-07-29T03:01:39.066Z,16.07
2016-07-29T03:02:39.080Z,16.08
2016-07-29T03:03:39.071Z,16.1
2016-07-29T03:04:39.033Z,16.06
2016-07-29T03:05:39.059Z,16.06
2016-07-29T03:06:39.025Z,16.16
2016-07-29T03:07:39.053Z,16.17
2016-07-29T03:08:39.050Z,16.1
2016-07-29T03:09:39.038Z,16.14
2016-07-29T03:10:39.029Z,16.21
2016-07-29T03:11:39.128Z,16.22
2016-07-29T03:12:39.037Z,16.14
2016-07-29T03:13:39.045Z,16.16
2016-07-29T03:14:38.981Z,16.14
2016-07-29T03:15:38.994Z,16.16
2016-07-29T03:16:39.006Z,16.21
2016-07-29T03:17:39.011Z,16.14
2016-07-29T03:18:39.009Z,16.11
2016-07-29T03:19:39.014Z,16.18
2016-07-29T03:20:38.979Z,16.13
2016-07-29T03:21:39.005Z,16.13
2016-07-29T03:22:38.981Z,16.06
2016-07-29T03:23:39.005Z,16.14
2016-07-29T03:24:38.974Z,16.07
2016-07-29T03:25:39.000Z,16.04
2016-07-29T03:26:39.030Z,16.04
2016-07-29T03:27:38.980Z,16.07
2016-07-29T03:28:38.980Z,16.02
2016-07-29T03:29:38.949Z,16.08
2016-07-29T03:30:38.952Z,16.06
2016-07-29T03:31:38.985Z,16.06
2016-07-29T03:32:39.030Z,16.02
2016-07-29T03:33:38.965Z,16.08
2016-07-29T03:34:38.951Z,16.04
2016-07-29T03:35:38.971Z,16.04
2016-07-29T03:36:38.954Z,16.1
2016-07-29T03:37:38.909Z,16.13
2016-07-29T03:38:38.921Z,16.18
2016-07-29T03:39:38.955Z,16.14
2016-07-29T03:40:38.944Z,16.14
2016-07-29T03:41:38.930Z,16.14
2016-07-29T03:42:38.935Z,16.18
2016-07-29T03:43:38.947Z,16.17
2016-07-29T03:44:38.949Z,16.18
2016-07-29T03:45:38.943Z,16.17
2016-07-29T03:46:38.921Z,16.21
2016-07-29T03:48:38.900Z,16.17
2016-07-29T03:49:38.922Z,16.11
2016-07-29T03:50:38.882Z,16.16
2016-07-29T03:51:38.868Z,16.26
2016-07-29T03:52:38.940Z,16.25
2016-07-29T03:53:38.891Z,16.26
2016-07-29T03:54:38.868Z,16.17
2016-07-29T03:55:38.851Z,16.25
2016-07-29T03:56:38.891Z,16.25
2016-07-29T03:57:39.121Z,16.25
2016-07-29T03:58:38.889Z,16.11
2016-07-29T03:59:38.909Z,16.27
2016-07-29T04:00:38.902Z,16.29
2016-07-29T04:01:38.912Z,16.3
2016-07-29T04:03:38.904Z,16.3
2016-07-29T04:04:39.096Z,16.3
2016-07-29T04:05:38.900Z,16.27
2016-07-29T04:06:38.870Z,16.27
2016-07-29T04:07:38.859Z,16.34
2016-07-29T04:08:38.957Z,16.4
2016-07-29T04:09:39.130Z,16.44
2016-07-29T04:10:38.882Z,16.37
2016-07-29T04:11:38.872Z,16.45
2016-07-29T04:12:38.842Z,16.48
2016-07-29T04:13:38.857Z,16.48
2016-07-29T04:14:38.832Z,16.55
2016-07-29T04:15:38.869Z,16.54
2016-07-29T04:16:38.856Z,16.58
2016-07-29T04:17:38.837Z,16.57
2016-07-29T04:18:38.844Z,16.58
2016-07-29T04:19:38.830Z,16.65
2016-07-29T04:20:38.838Z,16.69
2016-07-29T04:21:38.866Z,16.66
2016-07-29T04:22:38.832Z,16.7
2016-07-29T04:23:38.852Z,16.72
2016-07-29T04:24:38.813Z,16.74
2016-07-29T04:25:38.838Z,16.8
2016-07-29T04:26:38.839Z,16.84
2016-07-29T04:27:38.837Z,16.84
2016-07-29T04:28:38.843Z,16.74
2016-07-29T04:29:38.828Z,16.87
2016-07-29T04:30:38.808Z,16.88
2016-07-29T04:31:38.817Z,16.91
2016-07-29T04:32:38.805Z,16.94
2016-07-29T04:33:38.818Z,16.99
2016-07-29T04:34:38.809Z,16.99
2016-07-29T04:35:38.804Z,16.99
2016-07-29T04:36:38.802Z,17.02
2016-07-29T04:37:38.793Z,17.02
2016-07-29T04:38:38.785Z,16.92
2016-07-29T04:39:38.780Z,16.95
2016-07-29T04:40:38.799Z,16.99
2016-07-29T04:41:38.776Z,16.95
2016-07-29T04:42:39.039Z,16.91
2016-07-29T04:43:38.791Z,16.91
2016-07-29T04:44:38.761Z,17.02
2016-07-29T04:45:38.773Z,16.88
2016-07-29T04:46:39.734Z,17
2016-07-29T04:47:39.017Z,16.95
2016-07-29T04:48:38.753Z,16.91
2016-07-29T04:49:38.790Z,16.87
2016-07-29T04:50:38.753Z,16.8
2016-07-29T04:51:38.763Z,16.76
2016-07-29T04:52:38.798Z,16.73
2016-07-29T04:53:39.484Z,16.67
2016-07-29T04:54:38.701Z,16.66
2016-07-29T04:55:38.731Z,16.63
2016-07-29T04:56:38.729Z,16.59
2016-07-29T04:57:38.731Z,16.57
2016-07-29T04:58:38.729Z,16.54
2016-07-29T04:59:38.721Z,16.51
2016-07-29T05:00:38.722Z,16.44
2016-07-29T05:01:38.721Z,16.49
2016-07-29T05:02:38.696Z,16.54
2016-07-29T05:03:38.909Z,16.45
2016-07-29T05:04:39.014Z,16.44
2016-07-29T05:05:38.914Z,16.47
2016-07-29T05:06:38.896Z,16.57
2016-07-29T05:07:38.892Z,16.51
2016-07-29T05:08:38.662Z,16.58
2016-07-29T05:09:38.701Z,16.63
2016-07-29T05:10:38.743Z,16.66
2016-07-29T05:11:39.009Z,16.73
2016-07-29T05:12:38.905Z,16.84
2016-07-29T05:13:38.796Z,16.95
2016-07-29T05:14:38.724Z,16.92
2016-07-29T05:15:38.868Z,17.02
2016-07-29T05:16:38.927Z,17.17
2016-07-29T05:17:38.830Z,17.25
2016-07-29T05:18:38.933Z,17.3
2016-07-29T05:19:38.946Z,17.4
2016-07-29T05:20:38.955Z,17.47
2016-07-29T05:21:38.863Z,17.69
2016-07-29T05:22:38.879Z,17.69
2016-07-29T05:23:38.872Z,17.84
2016-07-29T05:24:38.882Z,17.88
2016-07-29T05:25:38.893Z,18.01
2016-07-29T05:26:38.826Z,18.06
2016-07-29T05:27:38.902Z,18.14
2016-07-29T05:28:38.899Z,18.2
2016-07-29T05:29:38.916Z,18.19
2016-07-29T05:30:38.918Z,18.34
2016-07-29T05:31:38.932Z,18.35
2016-07-29T05:32:38.828Z,18.49
2016-07-29T05:33:38.954Z,18.54
2016-07-29T05:34:38.847Z,18.61
2016-07-29T05:35:38.851Z,18.78
2016-07-29T05:36:38.873Z,18.79
2016-07-29T05:37:38.872Z,18.89
2016-07-29T05:38:38.883Z,18.96
2016-07-29T05:39:38.881Z,19.05
2016-07-29T05:40:38.886Z,19.24
2016-07-29T05:41:38.901Z,19.38
2016-07-29T05:42:38.807Z,19.5
2016-07-29T05:43:38.926Z,19.56
2016-07-29T05:44:38.812Z,19.67
2016-07-29T05:45:38.726Z,19.79
2016-07-29T05:46:38.837Z,19.78
2016-07-29T05:47:38.840Z,19.86
2016-07-29T05:48:39.044Z,19.83
2016-07-29T05:49:38.848Z,19.92
2016-07-29T05:50:38.756Z,20.01
2016-07-29T05:51:39.316Z,20.01
2016-07-29T05:52:38.888Z,19.93
2016-07-29T05:53:38.882Z,19.82
2016-07-29T05:54:38.890Z,19.63
2016-07-29T05:55:38.903Z,19.67
2016-07-29T05:56:38.903Z,19.53
2016-07-29T05:57:38.666Z,19.52
2016-07-29T05:58:38.931Z,19.5
2016-07-29T05:59:38.824Z,19.42
2016-07-29T06:00:38.842Z,19.34
2016-07-29T06:01:38.844Z,19.23
2016-07-29T06:02:38.748Z,19.17
2016-07-29T06:03:38.853Z,19.25
2016-07-29T06:04:38.755Z,19.16
2016-07-29T06:05:38.576Z,19.19
2016-07-29T06:06:38.574Z,19.17
2016-07-29T06:07:38.609Z,19.16
2016-07-29T06:08:38.604Z,19.12
2016-07-29T06:09:38.612Z,19.23
2016-07-29T06:10:38.570Z,19.27
2016-07-29T06:11:38.590Z,19.27
2016-07-29T06:12:38.604Z,19.34
2016-07-29T06:13:38.600Z,19.47
2016-07-29T06:14:38.629Z,19.46
2016-07-29T06:15:38.612Z,19.47
2016-07-29T06:16:38.597Z,19.52
2016-07-29T06:17:38.599Z,19.65
2016-07-29T06:19:38.600Z,19.72
2016-07-29T06:20:38.594Z,19.78
2016-07-29T06:21:38.565Z,19.83
2016-07-29T06:22:38.606Z,19.9
2016-07-29T06:23:38.597Z,19.98
2016-07-29T06:24:38.591Z,19.98
2016-07-29T06:25:38.602Z,20
2016-07-29T06:26:38.598Z,20.04
2016-07-29T06:27:38.568Z,20.08
2016-07-29T06:28:38.603Z,20.18
2016-07-29T06:29:39.293Z,20.23
2016-07-29T06:30:38.565Z,20.35
2016-07-29T06:31:38.591Z,20.48
2016-07-29T06:32:38.602Z,20.49
2016-07-29T06:34:38.664Z,20.44
2016-07-29T06:35:38.596Z,20.37
2016-07-29T06:36:38.594Z,20.25
2016-07-29T06:37:38.593Z,20.18
2016-07-29T06:38:38.567Z,20.05
2016-07-29T06:39:38.564Z,19.97
2016-07-29T06:40:38.566Z,19.87
2016-07-29T06:41:38.583Z,19.95
2016-07-29T06:42:38.572Z,19.87
2016-07-29T06:43:38.585Z,19.86
2016-07-29T06:44:38.600Z,19.79
2016-07-29T06:45:38.598Z,19.82
2016-07-29T06:46:38.592Z,19.72
2016-07-29T06:47:38.588Z,19.6
2016-07-29T06:48:38.579Z,19.65
2016-07-29T06:49:38.650Z,19.63
2016-07-29T06:50:38.596Z,19.6
2016-07-29T06:51:38.604Z,19.57
2016-07-29T06:52:38.605Z,19.56
2016-07-29T06:53:38.564Z,19.5
2016-07-29T06:54:38.558Z,19.46
2016-07-29T06:55:38.668Z,19.38
2016-07-29T06:56:38.598Z,19.4
2016-07-29T06:57:38.595Z,19.31
2016-07-29T06:58:38.578Z,19.25
2016-07-29T06:59:38.579Z,19.32
2016-07-29T07:00:38.559Z,19.31
2016-07-29T07:01:38.589Z,19.27
2016-07-29T07:02:38.600Z,19.17
2016-07-29T07:03:38.584Z,19.27
2016-07-29T07:04:38.588Z,19.23
2016-07-29T07:05:39.308Z,19.27
2016-07-29T07:06:38.597Z,19.15
2016-07-29T07:07:38.598Z,19.09
2016-07-29T07:08:38.584Z,19.07
2016-07-29T07:09:38.595Z,18.94
2016-07-29T07:10:38.586Z,18.89
2016-07-29T07:11:38.590Z,18.94
2016-07-29T07:12:38.591Z,18.78
2016-07-29T07:13:38.599Z,18.81
2016-07-29T07:14:38.576Z,18.74
2016-07-29T07:15:38.552Z,18.68
2016-07-29T07:16:38.605Z,18.65
2016-07-29T07:17:38.580Z,18.56
2016-07-29T07:18:38.592Z,18.41
2016-07-29T07:19:38.584Z,18.32
2016-07-29T07:20:38.584Z,18.31
2016-07-29T07:21:38.576Z,18.16
2016-07-29T07:22:38.572Z,18.06
2016-07-29T07:23:38.583Z,18.01
2016-07-29T07:24:38.582Z,17.94
2016-07-29T07:25:38.582Z,17.87
2016-07-29T07:26:38.574Z,17.86
2016-07-29T07:27:38.585Z,17.81
2016-07-29T07:28:38.570Z,17.69
2016-07-29T07:29:38.570Z,17.71
2016-07-29T07:30:38.575Z,17.66
2016-07-29T07:31:38.574Z,17.6
2016-07-29T07:32:38.565Z,17.6
2016-07-29T07:33:38.564Z,17.52
2016-07-29T07:34:38.563Z,17.43
2016-07-29T07:35:38.565Z,17.47
2016-07-29T07:36:38.560Z,17.4
2016-07-29T07:37:38.569Z,17.31
2016-07-29T07:38:38.557Z,17.2
2016-07-29T07:39:38.560Z,17.27
2016-07-29T07:40:38.552Z,17.13
2016-07-29T07:41:38.566Z,17.06
2016-07-29T07:42:38.550Z,17.1
2016-07-29T07:43:38.549Z,16.97
2016-07-29T07:44:38.537Z,16.92
2016-07-29T07:45:38.542Z,16.8
2016-07-29T07:46:38.530Z,16.73
2016-07-29T07:47:38.539Z,16.66
2016-07-29T07:48:38.535Z,16.58
2016-07-29T07:49:38.583Z,16.51
2016-07-29T07:50:38.538Z,16.54
2016-07-29T07:51:38.533Z,16.51
2016-07-29T07:52:38.530Z,16.52
2016-07-29T07:53:38.520Z,16.49
2016-07-29T07:54:38.498Z,16.49
2016-07-29T07:55:38.516Z,16.42
2016-07-29T07:56:38.510Z,16.36
2016-07-29T07:57:38.520Z,16.39
2016-07-29T07:58:38.509Z,16.32
2016-07-29T07:59:38.511Z,16.3
2016-07-29T08:00:38.516Z,16.18
2016-07-29T08:01:38.543Z,16.22
2016-07-29T08:02:38.509Z,16.18
2016-07-29T08:04:38.490Z,16.26
2016-07-29T08:05:38.480Z,16.18
2016-07-29T08:06:38.496Z,16.25
2016-07-29T08:07:38.487Z,16.29
2016-07-29T08:08:38.474Z,16.29
2016-07-29T08:09:38.473Z,16.17
2016-07-29T08:10:38.477Z,16.29
2016-07-29T08:11:38.471Z,16.22
2016-07-29T08:12:38.467Z,16.22
2016-07-29T08:13:38.474Z,16.21
2016-07-29T08:14:38.466Z,16.21
2016-07-29T08:15:38.458Z,16.29
2016-07-29T08:16:38.460Z,16.26
2016-07-29T08:17:38.468Z,16.32
2016-07-29T08:19:38.441Z,16.22
2016-07-29T08:20:38.440Z,16.18
2016-07-29T08:21:38.446Z,16.21
2016-07-29T08:22:38.445Z,16.34
2016-07-29T08:23:38.427Z,16.33
2016-07-29T08:24:38.444Z,16.32
2016-07-29T08:25:38.430Z,16.26
2016-07-29T08:26:38.432Z,16.29
2016-07-29T08:27:39.188Z,16.27
2016-07-29T08:28:38.429Z,16.32
2016-07-29T08:29:38.403Z,16.37
2016-07-29T08:30:38.427Z,16.27
2016-07-29T08:31:38.429Z,16.3
2016-07-29T08:32:38.431Z,16.45
2016-07-29T08:34:38.384Z,16.47
2016-07-29T08:35:38.438Z,16.55
2016-07-29T08:36:38.390Z,16.63
2016-07-29T08:37:38.389Z,16.7
2016-07-29T08:38:38.390Z,16.72
2016-07-29T08:39:38.384Z,16.77
2016-07-29T08:40:38.423Z,16.94
2016-07-29T08:41:38.383Z,16.9
2016-07-29T08:42:38.465Z,16.95
2016-07-29T08:43:38.385Z,17.1
2016-07-29T08:44:38.366Z,17.05
2016-07-29T08:45:38.370Z,17.22
2016-07-29T08:46:38.375Z,17.45
2016-07-29T08:47:38.375Z,17.52
2016-07-29T08:49:38.356Z,18.11
2016-07-29T08:50:38.371Z,18.19
2016-07-29T08:51:38.362Z,18.31
2016-07-29T08:52:38.367Z,18.47
2016-07-29T08:53:38.423Z,18.68
2016-07-29T08:54:38.374Z,18.76
2016-07-29T08:55:38.363Z,18.84
2016-07-29T08:56:38.346Z,18.93
2016-07-29T08:57:38.356Z,19.07
2016-07-29T08:58:38.332Z,19.17
2016-07-29T08:59:38.338Z,19.35
2016-07-29T09:00:38.341Z,19.68
2016-07-29T09:01:38.349Z,20.04
2016-07-29T09:02:38.352Z,20.29
2016-07-29T09:03:38.357Z,20.58
2016-07-29T09:04:39.087Z,20.71
2016-07-29T09:05:38.347Z,20.75
2016-07-29T09:06:38.346Z,20.9
2016-07-29T09:07:38.338Z,20.88
2016-07-29T09:08:38.347Z,21.06
2016-07-29T09:09:39.081Z,21.21
2016-07-29T09:10:38.340Z,21.23
2016-07-29T09:11:38.331Z,21.23
2016-07-29T09:13:38.361Z,21.27
2016-07-29T09:14:38.354Z,21.34
2016-07-29T09:15:38.347Z,21.46
2016-07-29T09:16:38.349Z,21.37
2016-07-29T09:17:38.361Z,21.45
2016-07-29T09:18:38.365Z,21.41
2016-07-29T09:19:38.478Z,21.45
2016-07-29T09:20:38.394Z,21.64
2016-07-29T09:21:38.362Z,21.62
2016-07-29T09:22:38.358Z,21.64
2016-07-29T09:23:38.337Z,21.7
2016-07-29T09:24:38.342Z,21.82
2016-07-29T09:25:38.343Z,21.61
2016-07-29T09:26:38.336Z,21.49
2016-07-29T09:27:38.329Z,21.31
2016-07-29T09:28:38.299Z,21.37
2016-07-29T09:29:38.306Z,21.41
2016-07-29T09:30:38.333Z,21.51
2016-07-29T09:31:38.343Z,21.62
2016-07-29T09:32:38.344Z,21.61
2016-07-29T09:33:38.435Z,21.62
2016-07-29T09:34:38.358Z,21.4
2016-07-29T09:35:38.345Z,21.21
2016-07-29T09:36:38.340Z,21.16
2016-07-29T09:37:38.355Z,21.16
2016-07-29T09:38:38.339Z,21.27
2016-07-29T09:39:38.315Z,21.27
2016-07-29T09:40:38.343Z,21.22
2016-07-29T09:41:38.334Z,21.34
2016-07-29T09:42:38.339Z,21.23
2016-07-29T09:43:38.346Z,21.43
2016-07-29T09:44:38.353Z,21.56
2016-07-29T09:45:38.352Z,21.76
2016-07-29T09:47:38.410Z,21.82
2016-07-29T09:48:38.339Z,21.73
2016-07-29T09:49:38.337Z,21.76
2016-07-29T09:50:38.377Z,21.77
2016-07-29T09:51:38.518Z,21.66
2016-07-29T09:52:38.565Z,21.45
2016-07-29T09:53:38.389Z,21.34
2016-07-29T09:54:38.361Z,21.38
2016-07-29T09:55:38.334Z,21.37
2016-07-29T09:56:38.316Z,21.36
2016-07-29T09:57:38.330Z,21.23
2016-07-29T09:58:38.356Z,21.25
2016-07-29T09:59:38.375Z,21.27
2016-07-29T10:00:38.468Z,21.23
2016-07-29T10:01:38.369Z,21.22
2016-07-29T10:02:38.400Z,21.16
2016-07-29T10:03:38.369Z,21.09
2016-07-29T10:04:38.393Z,21.12
2016-07-29T10:05:38.341Z,21.18
2016-07-29T10:06:38.331Z,21.19
2016-07-29T10:07:38.390Z,21.18
2016-07-29T10:08:38.318Z,21.18
2016-07-29T10:09:39.045Z,21.25
2016-07-29T10:10:38.342Z,21.25
2016-07-29T10:11:38.372Z,21.28
2016-07-29T10:12:38.461Z,21.36
2016-07-29T10:13:38.350Z,21.34
2016-07-29T10:14:38.334Z,21.46
2016-07-29T10:15:38.431Z,21.34
2016-07-29T10:16:38.327Z,21.37
2016-07-29T10:17:38.339Z,21.43
2016-07-29T10:18:38.333Z,21.36
2016-07-29T10:19:38.367Z,21.25
2016-07-29T10:20:38.359Z,21.22
2016-07-29T10:21:38.367Z,21.22
2016-07-29T10:22:38.400Z,21.28
2016-07-29T10:23:38.327Z,21.22
2016-07-29T10:24:38.336Z,21.38
2016-07-29T10:25:38.422Z,21.41
2016-07-29T10:26:38.391Z,21.41
2016-07-29T10:27:38.435Z,21.41
2016-07-29T10:28:38.384Z,21.48
2016-07-29T10:29:38.338Z,21.52
2016-07-29T10:30:38.357Z,21.37
2016-07-29T10:31:38.349Z,21.25
2016-07-29T10:32:38.341Z,21.15
2016-07-29T10:33:38.338Z,21.06
2016-07-29T10:34:38.385Z,21.15
2016-07-29T10:35:38.391Z,21.15
2016-07-29T10:36:39.081Z,21.11
2016-07-29T10:37:38.394Z,21.06
2016-07-29T10:38:38.341Z,21.11
2016-07-29T10:39:38.352Z,21.16
2016-07-29T10:40:39.098Z,21.16
2016-07-29T10:41:38.394Z,21.22
2016-07-29T10:42:38.414Z,21.15
2016-07-29T10:43:38.358Z,21.18
2016-07-29T10:44:38.369Z,21.11
2016-07-29T10:45:38.757Z,21.03
2016-07-29T10:46:38.715Z,21.15
2016-07-29T10:47:39.049Z,21.4
2016-07-29T10:48:39.206Z,21.49
2016-07-29T10:49:38.773Z,21.51
2016-07-29T10:50:38.609Z,21.62
2016-07-29T10:51:38.390Z,21.76
2016-07-29T10:52:38.392Z,21.77
2016-07-29T10:53:38.378Z,21.76
2016-07-29T10:54:38.394Z,21.8
2016-07-29T10:55:38.370Z,21.71
2016-07-29T10:56:38.384Z,21.59
2016-07-29T10:57:39.539Z,21.61
2016-07-29T10:58:38.376Z,21.61
2016-07-29T10:59:38.460Z,21.73
2016-07-29T11:00:39.075Z,21.83
2016-07-29T11:01:38.371Z,21.96
2016-07-29T11:02:38.551Z,21.92
2016-07-29T11:03:38.373Z,21.86
2016-07-29T11:04:38.371Z,21.94
2016-07-29T11:05:38.365Z,21.8
2016-07-29T11:06:38.422Z,21.92
2016-07-29T11:07:38.380Z,22.04
2016-07-29T11:08:38.381Z,22.18
2016-07-29T11:09:38.377Z,22.18
2016-07-29T11:10:38.379Z,22.34
2016-07-29T11:11:38.376Z,22.31
2016-07-29T11:12:38.388Z,22.29
2016-07-29T11:13:38.387Z,22.29
2016-07-29T11:14:38.381Z,22.18
2016-07-29T11:15:38.378Z,22
2016-07-29T11:16:38.403Z,22.04
2016-07-29T11:17:38.423Z,21.92
2016-07-29T11:18:38.383Z,21.86
2016-07-29T11:19:38.386Z,21.78
2016-07-29T11:20:38.412Z,21.76
2016-07-29T11:21:38.407Z,21.67
2016-07-29T11:22:38.413Z,21.61
2016-07-29T11:23:38.396Z,21.68
2016-07-29T11:24:38.395Z,21.77
2016-07-29T11:25:38.437Z,21.86
2016-07-29T11:26:38.442Z,21.92
2016-07-29T11:27:38.461Z,21.96
2016-07-29T11:28:38.425Z,22.04
2016-07-29T11:29:38.410Z,22.02
2016-07-29T11:30:38.440Z,21.99
2016-07-29T11:31:38.452Z,22.09
2016-07-29T11:32:38.401Z,22.16
2016-07-29T11:33:38.415Z,22.33
2016-07-29T11:34:38.424Z,22.51
2016-07-29T11:35:38.531Z,22.61
2016-07-29T11:36:38.427Z,22.76
2016-07-29T11:37:38.443Z,22.88
2016-07-29T11:38:38.421Z,23.03
2016-07-29T11:39:38.429Z,22.99
2016-07-29T11:40:38.424Z,22.92
2016-07-29T11:41:38.465Z,22.89
2016-07-29T11:42:38.424Z,22.78
2016-07-29T11:43:38.458Z,22.84
2016-07-29T11:44:38.466Z,22.82
2016-07-29T11:45:38.484Z,22.85
2016-07-29T11:46:38.458Z,22.76
2016-07-29T11:47:38.462Z,22.52
2016-07-29T11:48:38.509Z,22.38
2016-07-29T11:49:38.495Z,22.31
2016-07-29T11:50:38.485Z,22.3
2016-07-29T11:51:38.475Z,22.38
2016-07-29T11:52:38.449Z,22.45
2016-07-29T11:53:38.464Z,22.49
2016-07-29T11:54:38.626Z,22.48
2016-07-29T11:55:38.450Z,22.39
2016-07-29T11:56:38.461Z,22.44
2016-07-29T11:57:38.491Z,22.46
2016-07-29T11:58:39.188Z,22.41
2016-07-29T11:59:38.538Z,22.34
2016-07-29T12:00:38.500Z,22.41
2016-07-29T12:01:38.506Z,22.34
2016-07-29T12:02:38.482Z,22.34
2016-07-29T12:03:38.509Z,22.33
2016-07-29T12:04:38.501Z,22.45
2016-07-29T12:05:38.483Z,22.41
2016-07-29T12:06:38.474Z,22.48
2016-07-29T12:07:38.479Z,22.64
2016-07-29T12:08:38.510Z,22.55
2016-07-29T12:09:38.514Z,22.61
2016-07-29T12:10:38.595Z,22.49
2016-07-29T12:11:38.525Z,22.57
2016-07-29T12:12:38.528Z,22.46
2016-07-29T12:13:38.550Z,22.34
2016-07-29T12:14:38.519Z,22.24
2016-07-29T12:15:38.504Z,22.2
2016-07-29T12:16:38.503Z,22.27
2016-07-29T12:17:38.525Z,22.22
2016-07-29T12:18:38.535Z,22.22
2016-07-29T12:19:38.551Z,22.2
2016-07-29T12:20:38.593Z,22.22
2016-07-29T12:21:38.545Z,22.16
2016-07-29T12:22:38.582Z,22.11
2016-07-29T12:23:38.533Z,22.11
2016-07-29T12:24:38.534Z,22.12
2016-07-29T12:25:38.538Z,22.04
2016-07-29T12:26:38.543Z,22
2016-07-29T12:27:38.575Z,21.94
2016-07-29T12:28:38.515Z,21.94
2016-07-29T12:29:38.530Z,21.97
2016-07-29T12:30:38.521Z,22.02
2016-07-29T12:31:38.622Z,22.11
2016-07-29T12:32:38.563Z,22.2
2016-07-29T12:33:38.576Z,22.33
2016-07-29T12:34:38.587Z,22.52
2016-07-29T12:35:38.542Z,22.69
2016-07-29T12:36:38.543Z,22.86
2016-07-29T12:37:38.569Z,22.99
2016-07-29T12:38:38.570Z,23.1
2016-07-29T12:39:39.307Z,23.29
2016-07-29T12:40:38.545Z,23.32
2016-07-29T12:41:38.540Z,23.4
2016-07-29T12:42:38.542Z,23.41
2016-07-29T12:43:38.602Z,23.53
2016-07-29T12:44:38.604Z,23.44
2016-07-29T12:45:38.616Z,23.42
2016-07-29T12:46:39.344Z,23.48
2016-07-29T12:47:38.592Z,23.47
2016-07-29T12:48:38.587Z,23.5
2016-07-29T12:50:38.613Z,23.63
2016-07-29T12:51:38.629Z,23.62
2016-07-29T12:52:38.707Z,23.62
2016-07-29T12:53:38.599Z,23.67
2016-07-29T12:54:39.356Z,23.72
2016-07-29T12:55:38.931Z,23.71
2016-07-29T12:56:38.665Z,23.71
2016-07-29T12:57:38.628Z,23.72
2016-07-29T12:58:38.577Z,23.56
2016-07-29T12:59:38.585Z,23.44
2016-07-29T13:00:38.610Z,23.47
2016-07-29T13:01:38.629Z,23.44
2016-07-29T13:02:38.640Z,23.29
2016-07-29T13:03:38.640Z,23.24
2016-07-29T13:05:38.641Z,23.21
2016-07-29T13:06:38.632Z,23.21
2016-07-29T13:07:38.615Z,23.16
2016-07-29T13:08:38.603Z,23.15